TimePDT,TemperatureF,Dew PointF,Humidity,Sea Level PressureIn,VisibilityMPH,Wind Direction,Wind SpeedMPH,Gust SpeedMPH,PrecipitationIn,Events,Conditions,WindDirDegrees,DateUTC
12:15 AM,32.0,21.2,64,30.11,10.0,SSW,3.5,-,N/A,,Unknown,210,2013-03-18 07:15:00
12:35 AM,28.4,19.4,69,30.11,10.0,SW,4.6,-,N/A,,Unknown,230,2013-03-18 07:35:00
12:55 AM,26.6,21.2,80,30.11,10.0,West,4.6,-,N/A,,Unknown,260,2013-03-18 07:55:00
1:15 AM,23.0,19.4,86,30.10,10.0,North,4.6,-,N/A,,Unknown,350,2013-03-18 08:15:00
1:35 AM,21.2,19.4,93,30.11,10.0,Calm,Calm,-,N/A,,Unknown,0,2013-03-18 08:35:00
1:55 AM,21.2,17.6,86,30.10,10.0,Calm,Calm,-,N/A,,Unknown,0,2013-03-18 08:55:00
2:15 AM,19.4,17.6,93,30.11,10.0,Calm,Calm,-,N/A,,Unknown,0,2013-03-18 09:15:00
2:35 AM,19.4,15.8,86,30.11,10.0,NNW,5.8,-,N/A,,Unknown,330,2013-03-18 09:35:00
2:55 AM,19.4,15.8,86,30.12,10.0,NNW,5.8,-,N/A,,Unknown,340,2013-03-18 09:55:00
3:15 AM,17.6,15.8,93,30.11,10.0,NNW,5.8,-,N/A,,Unknown,340,2013-03-18 10:15:00
3:35 AM,19.4,17.6,93,30.12,10.0,North,4.6,-,N/A,,Unknown,360,2013-03-18 10:35:00
3:55 AM,17.6,15.8,93,30.11,10.0,Calm,Calm,-,N/A,,Unknown,0,2013-03-18 10:55:00
4:15 AM,17.6,15.8,93,30.10,10.0,NW,3.5,-,N/A,,Unknown,310,2013-03-18 11:15:00
4:35 AM,17.6,15.8,93,30.11,10.0,Calm,Calm,-,N/A,,Unknown,0,2013-03-18 11:35:00
4:55 AM,17.6,15.8,93,30.10,10.0,Calm,Calm,-,N/A,,Unknown,0,2013-03-18 11:55:00
5:15 AM,17.6,15.8,93,30.10,10.0,Calm,Calm,-,N/A,,Unknown,0,2013-03-18 12:15:00
5:35 AM,17.6,15.8,93,30.10,10.0,Calm,Calm,-,N/A,,Unknown,0,2013-03-18 12:35:00
5:55 AM,15.8,14.0,93,30.10,10.0,NNW,5.8,-,N/A,,Unknown,330,2013-03-18 12:55:00
6:15 AM,15.8,14.0,93,30.11,10.0,NNW,6.9,-,N/A,,Unknown,330,2013-03-18 13:15:00
6:35 AM,15.8,15.8,100,30.11,10.0,NW,5.8,-,N/A,,Unknown,310,2013-03-18 13:35:00
6:55 AM,15.8,15.8,100,30.12,10.0,North,8.1,-,N/A,,Unknown,360,2013-03-18 13:55:00
7:15 AM,17.6,15.8,93,30.12,10.0,NNW,8.1,-,N/A,,Unknown,340,2013-03-18 14:15:00
7:35 AM,17.6,15.8,93,30.12,10.0,NNW,6.9,-,N/A,,Unknown,340,2013-03-18 14:35:00
7:55 AM,21.2,19.4,93,30.12,10.0,NW,4.6,-,N/A,,Unknown,320,2013-03-18 14:55:00
8:15 AM,26.6,23.0,86,30.13,10.0,NNW,5.8,-,N/A,,Unknown,340,2013-03-18 15:15:00
8:35 AM,28.4,24.8,86,30.14,10.0,North,3.5,-,N/A,,Unknown,350,2013-03-18 15:35:00
8:55 AM,30.2,24.8,80,30.14,10.0,NNE,3.5,-,N/A,,Unknown,30,2013-03-18 15:55:00
9:15 AM,33.8,24.8,70,30.15,10.0,Calm,Calm,-,N/A,,Unknown,0,2013-03-18 16:15:00
9:35 AM,35.6,23.0,60,30.15,10.0,SSE,4.6,-,N/A,,Unknown,160,2013-03-18 16:35:00
9:55 AM,35.6,24.8,65,30.15,10.0,SE,5.8,-,N/A,,Unknown,140,2013-03-18 16:55:00
10:15 AM,37.4,24.8,60,30.15,10.0,South,5.8,-,N/A,,Unknown,170,2013-03-18 17:15:00
10:35 AM,39.2,24.8,56,30.15,10.0,South,8.1,-,N/A,,Unknown,180,2013-03-18 17:35:00
10:55 AM,42.8,24.8,49,30.15,10.0,South,9.2,-,N/A,,Unknown,190,2013-03-18 17:55:00
11:15 AM,42.8,21.2,42,30.15,10.0,South,8.1,-,N/A,,Unknown,180,2013-03-18 18:15:00
11:35 AM,42.8,23.0,46,30.15,10.0,SSE,6.9,-,N/A,,Unknown,150,2013-03-18 18:35:00
11:55 AM,44.6,21.2,39,30.14,10.0,SE,8.1,-,N/A,,Unknown,140,2013-03-18 18:55:00
12:15 PM,44.6,21.2,39,30.14,10.0,South,5.8,-,N/A,,Unknown,190,2013-03-18 19:15:00
12:35 PM,46.4,21.2,37,30.13,10.0,SSE,5.8,-,N/A,,Unknown,160,2013-03-18 19:35:00
12:55 PM,46.4,21.2,37,30.12,10.0,SSW,6.9,-,N/A,,Unknown,200,2013-03-18 19:55:00
1:15 PM,46.4,23.0,40,30.11,10.0,SE,8.1,-,N/A,,Unknown,140,2013-03-18 20:15:00
1:35 PM,48.2,23.0,37,30.10,10.0,SE,6.9,-,N/A,,Unknown,130,2013-03-18 20:35:00
1:55 PM,48.2,21.2,34,30.10,10.0,SE,6.9,-,N/A,,Unknown,130,2013-03-18 20:55:00
2:15 PM,51.8,21.2,30,30.10,10.0,Calm,Calm,-,N/A,,Unknown,0,2013-03-18 21:15:00
2:35 PM,50.0,21.2,32,30.09,10.0,South,5.8,-,N/A,,Unknown,190,2013-03-18 21:35:00
2:55 PM,50.0,19.4,30,30.09,10.0,ESE,5.8,-,N/A,,Unknown,120,2013-03-18 21:55:00
3:15 PM,51.8,19.4,28,30.08,10.0,ESE,6.9,-,N/A,,Unknown,110,2013-03-18 22:15:00
3:35 PM,51.8,19.4,28,30.08,10.0,ESE,5.8,-,N/A,,Unknown,110,2013-03-18 22:35:00
3:55 PM,51.8,19.4,28,30.07,10.0,South,8.1,-,N/A,,Unknown,170,2013-03-18 22:55:00
4:15 PM,51.8,21.2,30,30.07,10.0,South,4.6,-,N/A,,Unknown,190,2013-03-18 23:15:00
4:35 PM,51.8,19.4,28,30.06,10.0,SSE,5.8,-,N/A,,Unknown,150,2013-03-18 23:35:00
4:55 PM,51.8,17.6,26,30.07,10.0,South,5.8,-,N/A,,Unknown,170,2013-03-18 23:55:00
5:15 PM,50.0,17.6,28,30.06,10.0,SSE,6.9,-,N/A,,Unknown,150,2013-03-19 00:15:00
5:35 PM,48.2,19.4,32,30.06,10.0,ESE,6.9,-,N/A,,Unknown,110,2013-03-19 00:35:00
5:55 PM,48.2,17.6,30,30.06,10.0,SSE,4.6,-,N/A,,Unknown,160,2013-03-19 00:55:00
6:15 PM,48.2,17.6,30,30.05,10.0,SE,4.6,-,N/A,,Unknown,140,2013-03-19 01:15:00
6:35 PM,48.2,21.2,34,30.06,10.0,Calm,Calm,-,N/A,,Unknown,0,2013-03-19 01:35:00
6:55 PM,44.6,21.2,39,30.06,10.0,NW,6.9,-,N/A,,Unknown,320,2013-03-19 01:55:00
7:15 PM,42.8,23.0,46,30.05,10.0,North,8.1,-,N/A,,Unknown,350,2013-03-19 02:15:00
7:35 PM,41.0,21.2,45,30.06,10.0,North,10.4,-,N/A,,Unknown,350,2013-03-19 02:35:00
7:55 PM,39.2,21.2,49,30.06,10.0,North,9.2,-,N/A,,Unknown,350,2013-03-19 02:55:00
8:15 PM,39.2,21.2,49,30.07,10.0,North,9.2,-,N/A,,Unknown,10,2013-03-19 03:15:00
8:55 PM,37.4,21.2,52,30.09,10.0,NNW,6.9,-,N/A,,Unknown,330,2013-03-19 03:55:00
9:15 PM,35.6,21.2,56,30.09,10.0,NNW,8.1,-,N/A,,Unknown,330,2013-03-19 04:15:00
9:35 PM,35.6,21.2,56,30.09,10.0,NNW,8.1,-,N/A,,Unknown,340,2013-03-19 04:35:00
9:55 PM,35.6,21.2,56,30.09,10.0,NNW,9.2,-,N/A,,Unknown,330,2013-03-19 04:55:00
10:15 PM,35.6,21.2,56,30.09,10.0,NNW,8.1,-,N/A,,Unknown,340,2013-03-19 05:15:00
10:35 PM,33.8,21.2,60,30.09,10.0,NNW,8.1,-,N/A,,Unknown,340,2013-03-19 05:35:00
10:55 PM,33.8,21.2,60,30.09,10.0,NNW,5.8,-,N/A,,Unknown,330,2013-03-19 05:55:00
11:15 PM,30.2,21.2,69,30.09,10.0,NW,6.9,-,N/A,,Unknown,320,2013-03-19 06:15:00
11:55 PM,32.0,21.2,64,30.09,10.0,NW,6.9,-,N/A,,Unknown,320,2013-03-19 06:55:00